Time;durP1;ratioP1;P1;durP2;ratioP2;P2;SDS_P1;SDS_P2;PMS_P1;PMS_P2;Temp;Humidity;BMP_temperature;BMP_pressure;BME280_temperature;BME280_humidity;BME280_pressure;Samples;Min_cycle;Max_cycle;Signal;HPM_P1;HPM_P2
2022/04/12 00:01:14;;;;;;;;;;;21.20;33.50;;;;;;498383;239;1290;-39
2022/04/12 00:03:15;;;;;;;;;;;21.20;33.60;;;;;;498811;238;1201;-39
2022/04/12 00:05:17;;;;;;;;;;;21.20;33.60;;;;;;498885;239;2117;-39
2022/04/12 00:07:18;;;;;;;;;;;21.20;33.50;;;;;;498793;239;1228;-39
2022/04/12 00:09:19;;;;;;;;;;;21.30;33.60;;;;;;498389;239;1242;-39
2022/04/12 00:11:20;;;;;;;;;;;21.20;33.60;;;;;;498833;239;1576;-39
2022/04/12 00:13:22;;;;;;;;;;;21.20;33.60;;;;;;498907;239;1073;-39
2022/04/12 00:15:23;;;;;;;;;;;21.30;33.60;;;;;;498907;239;1097;-39
2022/04/12 00:19:44;;;;;;;;;;;21.30;33.60;;;;;;498441;239;1300;-39
2022/04/12 00:21:45;;;;;;;;;;;21.20;33.60;;;;;;498730;239;1088;-39
2022/04/12 00:23:46;;;;;;;;;;;21.20;33.60;;;;;;498872;239;1058;-39
2022/04/12 00:25:48;;;;;;;;;;;21.20;33.70;;;;;;498372;239;2189;-39
2022/04/12 00:27:49;;;;;;;;;;;21.20;33.70;;;;;;498897;239;1032;-39
2022/04/12 00:29:50;;;;;;;;;;;21.20;33.60;;;;;;498437;239;1287;-39
2022/04/12 00:31:52;;;;;;;;;;;21.20;33.60;;;;;;498818;239;1253;-39
2022/04/12 00:33:53;;;;;;;;;;;21.20;33.60;;;;;;498428;239;1117;-39
2022/04/12 00:35:56;;;;;;;;;;;21.20;33.60;;;;;;498479;239;1074;-39
2022/04/12 00:37:56;;;;;;;;;;;21.20;33.60;;;;;;498749;239;2171;-39
2022/04/12 00:39:57;;;;;;;;;;;21.20;33.60;;;;;;498904;239;1266;-39
2022/04/12 00:41:58;;;;;;;;;;;21.20;33.60;;;;;;498874;239;1206;-39
2022/04/12 00:44:00;;;;;;;;;;;21.20;33.60;;;;;;498889;239;1041;-39
2022/04/12 00:46:01;;;;;;;;;;;21.20;33.60;;;;;;498862;239;2106;-39
2022/04/12 00:48:02;;;;;;;;;;;21.20;33.60;;;;;;498435;239;1334;-39
2022/04/12 00:50:04;;;;;;;;;;;21.20;33.60;;;;;;498448;239;1047;-39
2022/04/12 00:52:05;;;;;;;;;;;21.20;33.60;;;;;;498864;239;1184;-39
2022/04/12 00:54:06;;;;;;;;;;;21.20;33.60;;;;;;498906;239;1051;-39
2022/04/12 00:56:07;;;;;;;;;;;21.20;33.60;;;;;;498365;239;1201;-39
2022/04/12 00:58:09;;;;;;;;;;;21.20;33.60;;;;;;498866;239;1079;-39
2022/04/12 01:00:10;;;;;;;;;;;21.20;33.60;;;;;;498887;239;1033;-39
2022/04/12 01:02:11;;;;;;;;;;;21.20;33.60;;;;;;498649;239;1573;-39
2022/04/12 01:04:13;;;;;;;;;;;21.30;33.60;;;;;;498876;239;962;-39
2022/04/12 01:06:14;;;;;;;;;;;21.20;33.60;;;;;;498752;239;2113;-39
2022/04/12 01:08:15;;;;;;;;;;;21.20;33.70;;;;;;498872;239;946;-39
2022/04/12 01:10:17;;;;;;;;;;;21.20;33.70;;;;;;498900;239;1077;-39
2022/04/12 01:12:21;;;;;;;;;;;21.20;33.60;;;;;;498847;239;1161;-39
2022/04/12 01:14:19;;;;;;;;;;;21.20;33.60;;;;;;498727;239;1424;-39
2022/04/12 01:16:21;;;;;;;;;;;21.20;33.70;;;;;;498712;239;1362;-39
2022/04/12 01:18:22;;;;;;;;;;;21.20;33.70;;;;;;498572;239;1135;-39
2022/04/12 01:20:24;;;;;;;;;;;21.20;33.60;;;;;;498377;239;1109;-39
2022/04/12 01:22:25;;;;;;;;;;;21.20;33.60;;;;;;498425;239;1194;-39
2022/04/12 01:24:27;;;;;;;;;;;21.30;33.70;;;;;;498404;239;1053;-39
2022/04/12 01:26:28;;;;;;;;;;;21.20;33.60;;;;;;498382;239;2169;-39
2022/04/12 01:28:30;;;;;;;;;;;21.20;33.60;;;;;;498874;239;1167;-39
2022/04/12 01:30:31;;;;;;;;;;;21.20;33.60;;;;;;498899;239;1007;-39
2022/04/12 01:32:32;;;;;;;;;;;21.20;33.70;;;;;;498771;239;1516;-39
2022/04/12 01:34:33;;;;;;;;;;;21.20;33.70;;;;;;498878;239;1053;-39
2022/04/12 01:36:35;;;;;;;;;;;21.20;33.70;;;;;;498871;239;1290;-39
2022/04/12 01:38:36;;;;;;;;;;;21.20;33.70;;;;;;498873;239;1085;-39
2022/04/12 01:40:37;;;;;;;;;;;21.20;33.70;;;;;;498874;239;1056;-39
2022/04/12 01:42:39;;;;;;;;;;;21.20;33.70;;;;;;498869;239;1248;-39
2022/04/12 01:44:40;;;;;;;;;;;21.20;33.70;;;;;;498836;239;2116;-39
2022/04/12 01:46:41;;;;;;;;;;;21.20;33.70;;;;;;498339;239;1339;-39
2022/04/12 01:48:43;;;;;;;;;;;21.20;33.70;;;;;;498625;239;1184;-39
2022/04/12 01:50:44;;;;;;;;;;;21.20;33.60;;;;;;498917;239;1027;-39
2022/04/12 01:52:45;;;;;;;;;;;21.30;33.60;;;;;;498620;239;1262;-39
2022/04/12 01:54:47;;;;;;;;;;;21.20;33.60;;;;;;498386;239;1059;-39
2022/04/12 01:56:48;;;;;;;;;;;21.20;33.60;;;;;;498381;239;1329;-39
2022/04/12 01:58:49;;;;;;;;;;;21.20;33.60;;;;;;498819;239;934;-39
2022/04/12 02:00:50;;;;;;;;;;;21.20;33.60;;;;;;498888;239;1177;-39
2022/04/12 02:02:52;;;;;;;;;;;21.20;33.70;;;;;;498871;239;1178;-39
2022/04/12 02:04:53;;;;;;;;;;;21.20;33.60;;;;;;498924;239;2101;-39
2022/04/12 02:06:54;;;;;;;;;;;21.20;33.70;;;;;;498871;236;1198;-39
2022/04/12 02:08:56;;;;;;;;;;;21.30;33.70;;;;;;498923;239;953;-39
2022/04/12 02:10:57;;;;;;;;;;;21.30;33.70;;;;;;498911;239;1259;-39
2022/04/12 02:12:58;;;;;;;;;;;21.20;33.70;;;;;;498894;239;1028;-39
2022/04/12 02:15:00;;;;;;;;;;;21.20;33.60;;;;;;498914;239;1061;-39
2022/04/12 02:17:01;;;;;;;;;;;21.20;33.70;;;;;;498350;239;1182;-39
2022/04/12 02:19:03;;;;;;;;;;;21.20;33.70;;;;;;498458;239;1192;-39
2022/04/12 02:21:04;;;;;;;;;;;21.20;33.60;;;;;;498781;239;1059;-39
2022/04/12 02:23:05;;;;;;;;;;;21.20;33.70;;;;;;498898;239;1108;-39
2022/04/12 02:25:06;;;;;;;;;;;21.10;33.70;;;;;;498933;239;2121;-39
2022/04/12 02:27:08;;;;;;;;;;;21.10;33.70;;;;;;498874;239;1367;-39
2022/04/12 02:29:10;;;;;;;;;;;21.20;33.80;;;;;;498897;239;1044;-39
2022/04/12 02:31:10;;;;;;;;;;;21.20;33.70;;;;;;498834;239;2200;-39
2022/04/12 02:33:11;;;;;;;;;;;21.20;33.70;;;;;;498832;239;1207;-39
2022/04/12 02:35:13;;;;;;;;;;;21.20;33.70;;;;;;498908;239;1043;-39
2022/04/12 02:37:14;;;;;;;;;;;21.20;33.70;;;;;;498773;239;1030;-39
2022/04/12 02:39:15;;;;;;;;;;;21.20;33.60;;;;;;498698;239;1002;-39
2022/04/12 02:41:17;;;;;;;;;;;21.30;33.70;;;;;;498880;239;1248;-39
2022/04/12 02:43:18;;;;;;;;;;;21.20;33.70;;;;;;498431;239;1325;-39
2022/04/12 02:45:19;;;;;;;;;;;21.20;33.70;;;;;;498866;238;2187;-39
2022/04/12 02:47:21;;;;;;;;;;;21.20;33.70;;;;;;498384;239;1348;-39
2022/04/12 02:49:22;;;;;;;;;;;21.20;33.80;;;;;;498612;239;1155;-39
2022/04/12 02:51:23;;;;;;;;;;;21.20;33.80;;;;;;498790;239;1237;-39
2022/04/12 02:53:25;;;;;;;;;;;21.20;33.70;;;;;;498917;239;1293;-39
2022/04/12 02:55:26;;;;;;;;;;;21.20;33.80;;;;;;498468;239;1028;-39
2022/04/12 02:57:28;;;;;;;;;;;21.20;33.80;;;;;;498870;239;1219;-39
2022/04/12 02:59:29;;;;;;;;;;;21.20;33.80;;;;;;498923;239;1211;-39
2022/04/12 03:01:30;;;;;;;;;;;21.20;33.80;;;;;;498835;239;1193;-39
2022/04/12 03:03:32;;;;;;;;;;;21.20;33.70;;;;;;498906;239;1376;-39
2022/04/12 03:05:34;;;;;;;;;;;21.20;33.80;;;;;;498415;239;2154;-39
2022/04/12 03:07:34;;;;;;;;;;;21.20;33.70;;;;;;498355;239;2135;-39
2022/04/12 03:09:36;;;;;;;;;;;21.20;33.70;;;;;;498438;239;1060;-39
2022/04/12 03:11:38;;;;;;;;;;;21.20;33.80;;;;;;498664;239;1343;-39
2022/04/12 03:13:38;;;;;;;;;;;21.20;33.80;;;;;;498808;239;2245;-39
2022/04/12 03:15:40;;;;;;;;;;;21.20;33.90;;;;;;498485;239;1315;-39
2022/04/12 03:17:41;;;;;;;;;;;21.10;33.80;;;;;;498867;239;1340;-39
2022/04/12 03:19:42;;;;;;;;;;;21.20;33.80;;;;;;498698;239;1221;-39
2022/04/12 03:21:44;;;;;;;;;;;21.20;33.70;;;;;;498614;239;1292;-39
2022/04/12 03:23:45;;;;;;;;;;;21.20;33.70;;;;;;498858;239;1027;-39
2022/04/12 03:25:46;;;;;;;;;;;21.20;33.80;;;;;;498874;239;2110;-39
2022/04/12 03:27:48;;;;;;;;;;;21.20;33.80;;;;;;498635;239;1236;-39
2022/04/12 03:29:49;;;;;;;;;;;21.20;33.80;;;;;;498873;239;1026;-39
2022/04/12 03:31:50;;;;;;;;;;;21.20;33.80;;;;;;498851;239;1041;-39
2022/04/12 03:33:51;;;;;;;;;;;21.20;33.80;;;;;;498902;239;1754;-39
2022/04/12 03:35:53;;;;;;;;;;;21.20;33.70;;;;;;498418;239;1115;-39
2022/04/12 03:37:59;;;;;;;;;;;21.20;33.70;;;;;;498875;239;1055;-39
2022/04/12 03:39:55;;;;;;;;;;;21.20;33.70;;;;;;498544;239;2385;-39
2022/04/12 03:41:57;;;;;;;;;;;21.20;33.70;;;;;;498851;239;1233;-39
2022/04/12 03:43:58;;;;;;;;;;;21.20;33.70;;;;;;498915;239;1045;-39
2022/04/12 03:45:59;;;;;;;;;;;21.20;33.70;;;;;;498789;239;2125;-39
2022/04/12 03:48:01;;;;;;;;;;;21.20;33.80;;;;;;498913;239;1190;-39
2022/04/12 03:50:02;;;;;;;;;;;21.20;33.70;;;;;;498708;239;1303;-39
2022/04/12 03:52:03;;;;;;;;;;;21.20;33.70;;;;;;498829;239;1156;-39
2022/04/12 03:54:05;;;;;;;;;;;21.20;33.70;;;;;;498394;239;1098;-39
2022/04/12 03:56:07;;;;;;;;;;;21.20;33.70;;;;;;498823;239;1238;-39
2022/04/12 03:58:08;;;;;;;;;;;21.30;33.70;;;;;;498832;239;970;-39
2022/04/12 04:00:09;;;;;;;;;;;21.20;33.70;;;;;;498854;239;957;-39
2022/04/12 04:02:11;;;;;;;;;;;21.30;33.70;;;;;;498581;239;1602;-39
2022/04/12 04:04:12;;;;;;;;;;;21.20;33.70;;;;;;498898;239;1033;-39
2022/04/12 04:06:13;;;;;;;;;;;21.20;33.70;;;;;;498304;239;2185;-39
2022/04/12 04:08:15;;;;;;;;;;;21.20;33.70;;;;;;498307;239;1213;-39
2022/04/12 04:10:16;;;;;;;;;;;21.20;33.70;;;;;;498334;239;1083;-39
2022/04/12 04:12:18;;;;;;;;;;;21.20;33.70;;;;;;498412;239;1113;-39
2022/04/12 04:14:19;;;;;;;;;;;21.30;33.80;;;;;;498829;239;1071;-39
2022/04/12 04:16:20;;;;;;;;;;;21.20;33.70;;;;;;498793;236;1144;-39
2022/04/12 04:18:21;;;;;;;;;;;21.20;33.70;;;;;;498598;239;1088;-39
2022/04/12 04:20:23;;;;;;;;;;;21.20;33.80;;;;;;498383;239;1282;-39
2022/04/12 04:22:24;;;;;;;;;;;21.20;33.80;;;;;;498790;239;1205;-39
2022/04/12 04:24:25;;;;;;;;;;;21.20;33.80;;;;;;498311;239;1075;-39
2022/04/12 04:26:27;;;;;;;;;;;21.20;33.80;;;;;;498766;239;2113;-39
2022/04/12 04:28:30;;;;;;;;;;;21.20;33.70;;;;;;498807;239;1064;-39
2022/04/12 04:30:33;;;;;;;;;;;21.20;33.80;;;;;;498334;239;2238;-39
2022/04/12 04:32:32;;;;;;;;;;;21.30;33.80;;;;;;498149;239;2216;-39
2022/04/12 04:34:33;;;;;;;;;;;21.20;33.70;;;;;;498545;239;1182;-39
2022/04/12 04:36:34;;;;;;;;;;;21.30;33.80;;;;;;498362;239;1199;-39
2022/04/12 04:38:36;;;;;;;;;;;21.20;33.80;;;;;;498785;239;1040;-39
2022/04/12 04:40:37;;;;;;;;;;;21.20;33.80;;;;;;498482;239;1083;-39
2022/04/12 04:42:40;;;;;;;;;;;21.20;33.80;;;;;;498390;239;1267;-39
2022/04/12 04:44:40;;;;;;;;;;;21.20;33.70;;;;;;498291;239;2196;-39
2022/04/12 04:46:41;;;;;;;;;;;21.20;33.80;;;;;;498355;239;2192;-39
2022/04/12 04:48:42;;;;;;;;;;;21.20;33.80;;;;;;498246;239;1065;-39
2022/04/12 04:50:44;;;;;;;;;;;21.20;33.80;;;;;;498178;235;1314;-39
2022/04/12 04:52:45;;;;;;;;;;;21.20;33.70;;;;;;498272;239;1177;-39
2022/04/12 04:54:46;;;;;;;;;;;21.20;33.70;;;;;;498252;239;1071;-39
2022/04/12 04:56:48;;;;;;;;;;;21.20;33.80;;;;;;498280;239;1209;-39
2022/04/12 04:58:49;;;;;;;;;;;21.20;33.80;;;;;;498311;239;976;-39
2022/04/12 05:00:50;;;;;;;;;;;21.20;33.80;;;;;;498714;239;1156;-39
2022/04/12 05:02:52;;;;;;;;;;;21.20;33.70;;;;;;498651;239;1318;-39
2022/04/12 05:04:53;;;;;;;;;;;21.20;33.70;;;;;;498338;239;1170;-39
2022/04/12 05:06:54;;;;;;;;;;;21.20;33.80;;;;;;498206;239;2192;-39
2022/04/12 05:08:56;;;;;;;;;;;21.20;33.80;;;;;;498490;239;1096;-39
2022/04/12 05:10:57;;;;;;;;;;;21.20;33.70;;;;;;498510;239;1182;-39
2022/04/12 05:12:58;;;;;;;;;;;21.20;33.70;;;;;;498372;239;1029;-39
2022/04/12 05:14:59;;;;;;;;;;;21.30;33.80;;;;;;498227;239;1092;-39
2022/04/12 05:17:01;;;;;;;;;;;21.30;33.70;;;;;;498117;239;1220;-39
2022/04/12 05:19:02;;;;;;;;;;;21.20;33.70;;;;;;498296;239;1058;-39
2022/04/12 05:21:03;;;;;;;;;;;21.20;33.80;;;;;;498036;239;1319;-39
2022/04/12 05:23:05;;;;;;;;;;;21.20;33.70;;;;;;498111;239;1009;-39
2022/04/12 05:25:06;;;;;;;;;;;21.20;33.70;;;;;;498619;239;1078;-39
2022/04/12 05:27:08;;;;;;;;;;;21.30;33.70;;;;;;498248;239;2184;-39
2022/04/12 05:29:09;;;;;;;;;;;21.30;33.70;;;;;;498171;239;1090;-39
2022/04/12 05:31:10;;;;;;;;;;;21.30;33.70;;;;;;498313;239;1095;-39
2022/04/12 05:33:12;;;;;;;;;;;21.20;33.80;;;;;;498112;239;1018;-39
2022/04/12 05:35:13;;;;;;;;;;;21.20;33.70;;;;;;498153;239;1036;-39
2022/04/12 05:37:14;;;;;;;;;;;21.20;33.80;;;;;;498010;239;1367;-39
2022/04/12 05:39:16;;;;;;;;;;;21.30;33.80;;;;;;497985;239;1061;-39
2022/04/12 05:41:17;;;;;;;;;;;21.30;33.70;;;;;;498043;239;1222;-39
2022/04/12 05:43:18;;;;;;;;;;;21.20;33.70;;;;;;497935;239;1129;-39
2022/04/12 05:45:19;;;;;;;;;;;21.30;33.70;;;;;;498082;239;1284;-39
2022/04/12 05:47:21;;;;;;;;;;;21.30;33.80;;;;;;497885;239;2185;-39
2022/04/12 05:49:22;;;;;;;;;;;21.20;33.70;;;;;;498049;239;1059;-39
2022/04/12 05:51:24;;;;;;;;;;;21.20;33.80;;;;;;497831;239;1287;-39
2022/04/12 05:53:25;;;;;;;;;;;21.30;33.70;;;;;;498164;239;1059;-39
2022/04/12 05:55:27;;;;;;;;;;;21.30;33.70;;;;;;497938;239;1012;-39
2022/04/12 05:57:28;;;;;;;;;;;21.30;33.80;;;;;;497903;239;1279;-39
2022/04/12 05:59:30;;;;;;;;;;;21.30;33.80;;;;;;497851;239;1331;-39
2022/04/12 06:01:31;;;;;;;;;;;21.20;33.70;;;;;;497943;239;1186;-39
2022/04/12 06:03:32;;;;;;;;;;;21.20;33.80;;;;;;497979;239;1054;-39
2022/04/12 06:05:34;;;;;;;;;;;21.20;33.80;;;;;;497985;239;1039;-39
2022/04/12 06:07:36;;;;;;;;;;;21.20;33.80;;;;;;497846;239;2157;-39
2022/04/12 06:09:36;;;;;;;;;;;21.20;33.70;;;;;;497954;239;2320;-39
2022/04/12 06:11:38;;;;;;;;;;;21.30;33.80;;;;;;497855;239;1202;-39
2022/04/12 06:13:39;;;;;;;;;;;21.30;33.80;;;;;;498044;239;1083;-39
2022/04/12 06:15:40;;;;;;;;;;;21.20;33.70;;;;;;497807;239;1402;-39
2022/04/12 06:17:42;;;;;;;;;;;21.20;33.80;;;;;;497864;239;1135;-39
2022/04/12 06:19:43;;;;;;;;;;;21.20;33.70;;;;;;497623;239;1095;-39
2022/04/12 06:21:45;;;;;;;;;;;21.20;33.80;;;;;;497640;239;1263;-39
2022/04/12 06:23:46;;;;;;;;;;;21.20;33.70;;;;;;498007;239;1062;-39
2022/04/12 06:25:47;;;;;;;;;;;21.20;33.60;;;;;;497926;239;1229;-39
2022/04/12 06:27:51;;;;;;;;;;;21.30;33.70;;;;;;497762;239;2177;-39
2022/04/12 06:29:52;;;;;;;;;;;21.20;33.70;;;;;;497750;239;1212;-39
2022/04/12 06:31:53;;;;;;;;;;;21.30;33.70;;;;;;497591;239;1180;-39
2022/04/12 06:33:55;;;;;;;;;;;21.20;33.70;;;;;;497876;239;1366;-39
2022/04/12 06:35:57;;;;;;;;;;;21.20;33.60;;;;;;497727;239;1275;-39
2022/04/12 06:37:58;;;;;;;;;;;21.30;33.70;;;;;;497915;239;1194;-39
2022/04/12 06:40:00;;;;;;;;;;;21.20;33.70;;;;;;497900;239;1188;-39
2022/04/12 06:42:01;;;;;;;;;;;21.20;33.70;;;;;;497734;239;1323;-39
2022/04/12 06:44:02;;;;;;;;;;;21.20;33.60;;;;;;497750;239;1118;-39
2022/04/12 06:46:04;;;;;;;;;;;21.20;33.70;;;;;;497693;239;1437;-39
2022/04/12 06:48:05;;;;;;;;;;;21.30;33.70;;;;;;497770;239;2177;-39
2022/04/12 06:50:06;;;;;;;;;;;21.20;33.60;;;;;;497961;239;1142;-39
2022/04/12 06:52:08;;;;;;;;;;;21.20;33.70;;;;;;497691;239;1321;-39
2022/04/12 06:54:09;;;;;;;;;;;21.20;33.60;;;;;;497619;239;1207;-39
2022/04/12 06:56:10;;;;;;;;;;;21.20;33.60;;;;;;497706;239;1382;-39
2022/04/12 06:58:12;;;;;;;;;;;21.20;33.70;;;;;;497615;239;985;-39
2022/04/12 07:00:13;;;;;;;;;;;21.20;33.60;;;;;;497504;239;1479;-39
2022/04/12 07:02:14;;;;;;;;;;;21.20;33.60;;;;;;497738;239;1502;-39
2022/04/12 07:04:16;;;;;;;;;;;21.20;33.60;;;;;;497516;239;1088;-39
2022/04/12 07:06:17;;;;;;;;;;;21.20;33.60;;;;;;497577;239;1622;-39
2022/04/12 07:08:19;;;;;;;;;;;21.30;33.60;;;;;;497613;239;2129;-39
2022/04/12 07:10:20;;;;;;;;;;;21.30;33.50;;;;;;497652;239;1115;-39
2022/04/12 07:12:21;;;;;;;;;;;21.30;33.50;;;;;;497740;239;1200;-39
2022/04/12 07:14:23;;;;;;;;;;;21.30;33.50;;;;;;497606;239;1069;-39
2022/04/12 07:16:24;;;;;;;;;;;21.20;33.50;;;;;;497407;236;1347;-39
2022/04/12 07:18:25;;;;;;;;;;;21.30;33.50;;;;;;497581;239;1173;-39
2022/04/12 07:20:27;;;;;;;;;;;21.30;33.50;;;;;;497693;239;1140;-39
2022/04/12 07:22:29;;;;;;;;;;;21.30;33.50;;;;;;497827;239;1221;-39
2022/04/12 07:24:29;;;;;;;;;;;21.30;33.50;;;;;;497610;239;2853;-39
2022/04/12 07:26:31;;;;;;;;;;;21.30;33.50;;;;;;497482;239;1496;-39
2022/04/12 07:28:32;;;;;;;;;;;21.30;33.60;;;;;;497668;239;2176;-39
2022/04/12 07:30:33;;;;;;;;;;;21.30;33.40;;;;;;497838;239;1040;-39
2022/04/12 07:32:34;;;;;;;;;;;21.30;33.40;;;;;;497535;239;1221;-39
2022/04/12 07:34:36;;;;;;;;;;;21.30;33.50;;;;;;497464;239;1118;-39
2022/04/12 07:36:39;;;;;;;;;;;21.30;33.60;;;;;;497471;239;1423;-39
2022/04/12 07:38:38;;;;;;;;;;;21.20;33.50;;;;;;497322;239;1367;-39
2022/04/12 07:40:40;;;;;;;;;;;21.20;33.50;;;;;;497517;239;1063;-39
2022/04/12 07:42:41;;;;;;;;;;;21.20;33.50;;;;;;497583;239;1215;-39
2022/04/12 07:44:43;;;;;;;;;;;21.20;33.60;;;;;;497678;239;1192;-39
2022/04/12 07:46:44;;;;;;;;;;;21.20;33.50;;;;;;497523;239;2192;-39
2022/04/12 07:48:45;;;;;;;;;;;21.20;33.60;;;;;;497639;239;1093;-39
2022/04/12 07:50:47;;;;;;;;;;;21.20;33.60;;;;;;497509;239;1379;-39
2022/04/12 07:52:48;;;;;;;;;;;21.20;33.60;;;;;;497704;239;1174;-39
2022/04/12 07:54:49;;;;;;;;;;;21.20;33.60;;;;;;497676;239;1098;-39
2022/04/12 07:56:51;;;;;;;;;;;21.20;33.60;;;;;;497520;239;1339;-39
2022/04/12 07:58:52;;;;;;;;;;;21.20;33.50;;;;;;497606;239;1104;-39
2022/04/12 08:00:53;;;;;;;;;;;21.30;33.50;;;;;;497648;239;1173;-39
2022/04/12 08:02:55;;;;;;;;;;;21.30;33.50;;;;;;497580;239;1199;-39
2022/04/12 08:04:56;;;;;;;;;;;21.20;33.40;;;;;;497598;239;1146;-39
2022/04/12 08:06:57;;;;;;;;;;;21.30;33.50;;;;;;497580;236;2122;-39
2022/04/12 08:08:59;;;;;;;;;;;21.30;33.50;;;;;;497343;239;1197;-39
2022/04/12 08:11:00;;;;;;;;;;;21.30;33.50;;;;;;497318;239;1064;-39
2022/04/12 08:13:01;;;;;;;;;;;21.30;33.50;;;;;;497434;239;1323;-39
2022/04/12 08:15:05;;;;;;;;;;;21.20;33.40;;;;;;497836;239;1167;-39
2022/04/12 08:17:04;;;;;;;;;;;21.20;33.50;;;;;;497511;239;2223;-39
2022/04/12 08:19:05;;;;;;;;;;;21.20;33.60;;;;;;497512;239;1252;-39
2022/04/12 08:21:07;;;;;;;;;;;21.20;33.50;;;;;;497463;239;1130;-39
2022/04/12 08:23:08;;;;;;;;;;;21.20;33.50;;;;;;497514;239;1212;-39
2022/04/12 08:25:10;;;;;;;;;;;21.20;33.50;;;;;;497496;239;1064;-39
2022/04/12 08:27:13;;;;;;;;;;;21.20;33.40;;;;;;497654;239;2201;-39
2022/04/12 08:29:12;;;;;;;;;;;21.30;33.50;;;;;;497303;239;1365;-39
2022/04/12 08:31:14;;;;;;;;;;;21.30;33.50;;;;;;497269;239;1162;-39
2022/04/12 08:33:15;;;;;;;;;;;21.30;33.50;;;;;;497189;239;1347;-39
2022/04/12 08:35:16;;;;;;;;;;;21.30;33.40;;;;;;497198;239;1091;-39
2022/04/12 08:37:18;;;;;;;;;;;21.30;33.40;;;;;;497026;239;1393;-39
2022/04/12 08:39:19;;;;;;;;;;;21.30;33.50;;;;;;497484;239;1274;-39
2022/04/12 08:41:20;;;;;;;;;;;21.20;33.40;;;;;;497476;239;1356;-39
2022/04/12 08:43:22;;;;;;;;;;;21.20;33.50;;;;;;497336;239;1281;-39
2022/04/12 08:45:23;;;;;;;;;;;21.30;33.50;;;;;;497118;239;1175;-39
2022/04/12 08:47:24;;;;;;;;;;;21.30;33.50;;;;;;497128;239;2126;-39
2022/04/12 08:49:26;;;;;;;;;;;21.20;33.50;;;;;;497233;239;1191;-39
2022/04/12 08:51:28;;;;;;;;;;;21.20;33.60;;;;;;497303;239;1307;-39
2022/04/12 08:53:29;;;;;;;;;;;21.20;33.50;;;;;;497526;239;2360;-39
2022/04/12 08:55:30;;;;;;;;;;;21.20;33.50;;;;;;497446;239;1165;-39
2022/04/12 08:57:32;;;;;;;;;;;21.20;33.50;;;;;;497413;239;1150;-39
2022/04/12 08:59:33;;;;;;;;;;;21.30;33.50;;;;;;497413;239;1054;-39
2022/04/12 09:01:34;;;;;;;;;;;21.30;33.50;;;;;;497362;239;1197;-39
2022/04/12 09:03:36;;;;;;;;;;;21.30;33.50;;;;;;497632;239;1080;-39
2022/04/12 09:05:37;;;;;;;;;;;21.20;33.50;;;;;;497498;239;1382;-39
2022/04/12 09:07:38;;;;;;;;;;;21.20;33.50;;;;;;497779;239;2121;-39
2022/04/12 09:09:39;;;;;;;;;;;21.20;33.50;;;;;;497784;239;1447;-39
2022/04/12 09:11:41;;;;;;;;;;;21.20;33.50;;;;;;497665;239;1327;-39
2022/04/12 09:13:42;;;;;;;;;;;21.20;33.60;;;;;;497576;239;1058;-39
2022/04/12 09:15:44;;;;;;;;;;;21.20;33.60;;;;;;497409;239;1066;-39
2022/04/12 09:17:48;;;;;;;;;;;21.20;33.60;;;;;;497507;239;1197;-39
2022/04/12 09:19:46;;;;;;;;;;;21.30;33.60;;;;;;497305;239;1836;-39
2022/04/12 09:21:48;;;;;;;;;;;21.20;33.50;;;;;;497376;237;1217;-39
2022/04/12 09:23:49;;;;;;;;;;;21.20;33.50;;;;;;497498;239;1337;-39
2022/04/12 09:25:50;;;;;;;;;;;21.20;33.50;;;;;;497499;239;1102;-39
2022/04/12 09:27:55;;;;;;;;;;;21.30;33.60;;;;;;497618;239;2181;-39
2022/04/12 09:29:53;;;;;;;;;;;21.20;33.60;;;;;;497375;239;2016;-39
2022/04/12 09:31:54;;;;;;;;;;;21.20;33.60;;;;;;497370;239;1322;-39
2022/04/12 09:33:56;;;;;;;;;;;21.30;33.60;;;;;;497650;239;1218;-39
2022/04/12 09:35:57;;;;;;;;;;;21.20;33.70;;;;;;497438;239;1432;-39
2022/04/12 09:37:59;;;;;;;;;;;21.20;33.60;;;;;;497532;239;1245;-39
2022/04/12 09:40:00;;;;;;;;;;;21.20;33.60;;;;;;497667;239;1221;-39
2022/04/12 09:42:02;;;;;;;;;;;21.30;33.60;;;;;;497592;239;1329;-39
2022/04/12 09:44:07;;;;;;;;;;;21.20;33.60;;;;;;497530;239;2026;-39
2022/04/12 09:46:13;;;;;;;;;;;21.20;33.70;;;;;;497575;239;1969;-39
2022/04/12 09:48:09;;;;;;;;;;;21.20;33.60;;;;;;497177;239;2193;-39
2022/04/12 09:50:10;;;;;;;;;;;21.20;33.60;;;;;;497435;239;1282;-39
2022/04/12 09:52:12;;;;;;;;;;;21.30;33.60;;;;;;497422;239;1041;-39
2022/04/12 09:54:13;;;;;;;;;;;21.30;33.60;;;;;;497436;239;1195;-39
2022/04/12 09:56:14;;;;;;;;;;;21.20;33.70;;;;;;497441;239;1276;-39
2022/04/12 09:58:16;;;;;;;;;;;21.30;33.70;;;;;;497519;239;1304;-39
2022/04/12 10:00:17;;;;;;;;;;;21.20;33.60;;;;;;497473;239;1145;-39
2022/04/12 10:02:18;;;;;;;;;;;21.20;33.60;;;;;;497287;239;1179;-39
2022/04/12 10:04:20;;;;;;;;;;;21.20;33.60;;;;;;497581;239;1484;-39
2022/04/12 10:06:21;;;;;;;;;;;21.30;33.60;;;;;;497524;239;1184;-39
2022/04/12 10:08:22;;;;;;;;;;;21.30;33.70;;;;;;497588;239;2196;-39
2022/04/12 10:10:23;;;;;;;;;;;21.20;33.70;;;;;;497476;239;1235;-39
2022/04/12 10:12:25;;;;;;;;;;;21.30;33.60;;;;;;497460;239;1272;-39
2022/04/12 10:14:26;;;;;;;;;;;21.20;33.70;;;;;;497306;239;1186;-39
2022/04/12 10:16:27;;;;;;;;;;;21.20;33.70;;;;;;497483;239;1299;-39
2022/04/12 10:18:29;;;;;;;;;;;21.20;33.70;;;;;;497688;239;1103;-39
2022/04/12 10:20:30;;;;;;;;;;;21.20;33.80;;;;;;497717;239;1035;-39
2022/04/12 10:22:32;;;;;;;;;;;21.20;33.70;;;;;;497633;239;1208;-39
2022/04/12 10:24:33;;;;;;;;;;;21.20;33.70;;;;;;497552;239;1184;-39
2022/04/12 10:26:34;;;;;;;;;;;21.20;33.70;;;;;;497523;239;1195;-39
2022/04/12 10:28:36;;;;;;;;;;;21.20;33.70;;;;;;497620;239;2185;-39
2022/04/12 10:30:37;;;;;;;;;;;21.20;33.70;;;;;;497637;239;1172;-39
2022/04/12 10:32:38;;;;;;;;;;;21.20;33.70;;;;;;497439;239;1231;-39
2022/04/12 10:34:40;;;;;;;;;;;21.20;33.70;;;;;;497532;239;1090;-39
2022/04/12 10:36:41;;;;;;;;;;;21.20;33.80;;;;;;497564;239;1145;-39
2022/04/12 10:38:42;;;;;;;;;;;21.20;33.70;;;;;;497519;239;1076;-39
2022/04/12 10:40:43;;;;;;;;;;;21.20;33.70;;;;;;497555;239;1336;-39
2022/04/12 10:42:45;;;;;;;;;;;21.30;33.80;;;;;;497586;239;1162;-39
2022/04/12 10:44:47;;;;;;;;;;;21.20;33.70;;;;;;497561;239;1199;-39
2022/04/12 10:46:48;;;;;;;;;;;21.20;33.80;;;;;;497487;239;1359;-39
2022/04/12 10:48:49;;;;;;;;;;;21.20;33.80;;;;;;497676;239;2177;-39
2022/04/12 10:50:51;;;;;;;;;;;21.20;33.90;;;;;;497525;239;1320;-39
2022/04/12 10:52:52;;;;;;;;;;;21.20;33.90;;;;;;497746;239;1294;-39
2022/04/12 10:54:54;;;;;;;;;;;21.20;33.90;;;;;;497676;239;1205;-39
2022/04/12 10:56:55;;;;;;;;;;;21.20;33.80;;;;;;497566;239;1650;-40
2022/04/12 10:58:57;;;;;;;;;;;21.20;33.90;;;;;;497699;239;1074;-39
2022/04/12 11:00:59;;;;;;;;;;;21.30;33.80;;;;;;497452;239;2031;-39
2022/04/12 11:03:01;;;;;;;;;;;21.30;33.80;;;;;;497460;239;1073;-39
2022/04/12 11:05:02;;;;;;;;;;;21.20;33.70;;;;;;497325;239;1044;-39
2022/04/12 11:07:03;;;;;;;;;;;21.20;33.80;;;;;;497237;236;1246;-39
2022/04/12 11:09:05;;;;;;;;;;;21.20;33.80;;;;;;497560;239;2200;-39
2022/04/12 11:11:06;;;;;;;;;;;21.20;33.80;;;;;;497515;239;1387;-39
2022/04/12 11:13:07;;;;;;;;;;;21.20;33.80;;;;;;497557;239;1165;-39
2022/04/12 11:15:09;;;;;;;;;;;21.20;33.80;;;;;;497625;239;1243;-39
2022/04/12 11:17:10;;;;;;;;;;;21.20;33.80;;;;;;497459;239;1259;-39
2022/04/12 11:19:11;;;;;;;;;;;21.20;33.90;;;;;;497575;239;1158;-39
2022/04/12 11:21:12;;;;;;;;;;;21.20;33.90;;;;;;497497;239;1279;-39
2022/04/12 11:23:14;;;;;;;;;;;21.20;33.90;;;;;;497477;239;1294;-39
2022/04/12 11:25:15;;;;;;;;;;;21.20;33.90;;;;;;497541;239;1402;-39
2022/04/12 11:27:17;;;;;;;;;;;21.20;33.90;;;;;;497816;239;1237;-39
2022/04/12 11:29:18;;;;;;;;;;;21.30;33.90;;;;;;498080;239;2204;-39
2022/04/12 11:31:19;;;;;;;;;;;21.20;33.90;;;;;;497796;239;1190;-39
2022/04/12 11:33:20;;;;;;;;;;;21.30;34.00;;;;;;497751;239;1042;-39
2022/04/12 11:35:22;;;;;;;;;;;21.20;33.90;;;;;;497559;239;1068;-39
2022/04/12 11:37:23;;;;;;;;;;;21.20;33.90;;;;;;498129;239;1241;-39
2022/04/12 11:39:24;;;;;;;;;;;21.20;33.90;;;;;;497653;239;1077;-39
2022/04/12 11:41:26;;;;;;;;;;;21.20;34.00;;;;;;497489;239;1344;-39
2022/04/12 11:43:27;;;;;;;;;;;21.30;34.00;;;;;;497666;239;1060;-39
2022/04/12 11:45:28;;;;;;;;;;;21.20;33.90;;;;;;497327;239;1093;-39
2022/04/12 11:47:33;;;;;;;;;;;21.20;33.90;;;;;;497280;239;1145;-39
2022/04/12 11:49:31;;;;;;;;;;;21.20;34.00;;;;;;497396;239;2128;-39
2022/04/12 11:51:32;;;;;;;;;;;21.20;34.00;;;;;;497575;239;1334;-40
2022/04/12 11:53:33;;;;;;;;;;;21.20;34.00;;;;;;497716;239;1108;-39
2022/04/12 11:55:35;;;;;;;;;;;21.20;34.00;;;;;;497582;239;1215;-39
2022/04/12 11:57:37;;;;;;;;;;;21.20;34.00;;;;;;497719;239;1127;-39
2022/04/12 11:59:38;;;;;;;;;;;21.20;34.10;;;;;;497613;239;1271;-39